Terminal Aerodrome Forecast
Issued by NWS Boise, ID

Home | Current Version | Previous Version | Text Only | Print | Product List | Glossary On
Versions: 1 2 3 4 5 6 7 8 9 10 11 12 13 14 15 16 17 18 19 20
000
FTUS45 KBOI 082329
TAFBOI
TAF
KBOI 082329Z 0900/0924 12009KT P6SM VCSH SCT015 BKN035 OVC050
      TEMPO 0900/0902 3SM -SHSN BR OVC015
     FM090600 15006KT P6SM SCT025 BKN050 OVC070
     FM091600 13009KT 3SM -RA OVC020=

USA.gov is the U.S. government's official web portal to all federal, state and local government web resources and services.